Time;durP1;ratioP1;P1;durP2;ratioP2;P2;SDS_P1;SDS_P2;PMS_P1;PMS_P2;Temp;Humidity;BMP_temperature;BMP_pressure;BME280_temperature;BME280_humidity;BME280_pressure;Samples;Min_cycle;Max_cycle;Signal;HPM_P1;HPM_P2
2022/01/10 00:01:06;;;;;;;9.02;4.60;;;5.70;81.90;;;;;;5078396;28;20402;-80
2022/01/10 00:03:32;;;;;;;7.38;4.50;;;5.70;81.90;;;;;;5076604;28;20717;-79
2022/01/10 00:05:57;;;;;;;7.57;4.65;;;5.70;81.70;;;;;;5076928;28;20024;-81
2022/01/10 00:08:23;;;;;;;7.50;4.43;;;5.70;81.80;;;;;;5079775;28;20089;-81
2022/01/10 00:10:51;;;;;;;7.72;4.32;;;5.70;81.80;;;;;;5076566;28;20031;-80
2022/01/10 00:13:17;;;;;;;10.00;4.40;;;5.70;81.70;;;;;;5076321;28;20055;-81
2022/01/10 00:15:44;;;;;;;8.95;4.72;;;5.70;81.70;;;;;;5070839;28;20024;-81
2022/01/10 00:18:10;;;;;;;9.50;4.78;;;5.70;81.60;;;;;;5064720;28;20020;-81
2022/01/10 00:20:36;;;;;;;8.02;4.28;;;5.70;81.70;;;;;;5064347;28;20017;-79
2022/01/10 00:23:02;;;;;;;6.47;3.88;;;5.70;81.60;;;;;;5068473;28;20064;-80
2022/01/10 00:25:27;;;;;;;9.35;4.18;;;5.70;81.50;;;;;;5063118;28;20033;-81
2022/01/10 00:27:54;;;;;;;7.47;4.50;;;5.60;81.50;;;;;;5065532;28;20517;-81
2022/01/10 00:30:24;;;;;;;11.73;4.50;;;5.70;81.60;;;;;;5066336;28;20038;-82
2022/01/10 00:32:50;;;;;;;8.77;4.65;;;5.60;81.60;;;;;;5063707;28;20474;-81
2022/01/10 00:35:16;;;;;;;8.15;4.47;;;5.60;81.50;;;;;;5067824;28;20025;-79
2022/01/10 00:37:43;;;;;;;10.70;4.53;;;5.60;81.50;;;;;;5067997;28;20032;-79
2022/01/10 00:40:11;;;;;;;8.18;4.50;;;5.60;81.50;;;;;;5061816;28;20051;-80
2022/01/10 00:42:38;;;;;;;11.25;4.57;;;5.60;81.60;;;;;;5061105;28;20120;-80
2022/01/10 00:45:13;;;;;;;8.10;4.97;;;5.50;81.50;;;;;;5067417;28;20036;-80
2022/01/10 00:47:39;;;;;;;8.57;4.75;;;5.50;81.50;;;;;;5070009;28;20027;-80
2022/01/10 00:50:05;;;;;;;9.55;4.75;;;5.60;81.50;;;;;;5070322;28;20028;-80
2022/01/10 00:52:31;;;;;;;7.78;4.40;;;5.60;81.50;;;;;;5071520;28;20495;-80
2022/01/10 00:54:56;;;;;;;9.13;4.88;;;5.60;81.40;;;;;;5058577;28;20020;-80
2022/01/10 00:57:21;;;;;;;8.55;4.25;;;5.60;81.40;;;;;;5066004;28;20032;-79
2022/01/10 00:59:47;;;;;;;9.18;4.20;;;5.60;81.30;;;;;;5067462;28;20036;-78
2022/01/10 01:02:12;;;;;;;6.80;4.30;;;5.60;81.20;;;;;;5070079;28;20154;-79
2022/01/10 01:04:38;;;;;;;8.32;4.00;;;5.50;81.00;;;;;;5063739;28;20411;-79
2022/01/10 01:07:04;;;;;;;10.30;4.78;;;5.50;81.20;;;;;;5071164;28;20025;-79
2022/01/10 01:09:31;;;;;;;7.43;4.63;;;5.50;81.30;;;;;;5068611;28;20121;-80
2022/01/10 01:12:19;;;;;;;9.93;4.88;;;5.40;81.20;;;;;;5071479;28;20351;-80
2022/01/10 01:17:14;;;;;;;11.00;5.35;;;5.40;81.40;;;;;;5065727;28;20020;-80
2022/01/10 01:25:11;;;;;;;9.02;4.57;;;5.40;81.30;;;;;;5062565;28;20110;-79
2022/01/10 01:27:37;;;;;;;8.55;5.03;;;5.40;81.20;;;;;;5064158;28;20720;-80
2022/01/10 01:30:05;;;;;;;5.78;4.45;;;5.40;81.30;;;;;;5071086;28;20453;-80
2022/01/10 01:32:30;;;;;;;9.60;5.13;;;5.40;81.20;;;;;;5059208;28;20025;-81
2022/01/10 01:35:02;;;;;;;9.10;4.80;;;5.40;81.20;;;;;;5070220;28;20039;-79
2022/01/10 01:37:28;;;;;;;11.52;5.28;;;5.40;81.20;;;;;;5064426;28;20020;-78
2022/01/10 01:39:53;;;;;;;9.18;4.10;;;5.40;81.20;;;;;;5065704;28;20032;-78
2022/01/10 01:44:56;;;;;;;9.25;5.10;;;5.30;81.30;;;;;;5066203;28;20044;-80
2022/01/10 01:47:21;;;;;;;9.98;5.40;;;5.30;81.30;;;;;;5063753;28;20036;-79
2022/01/10 01:49:47;;;;;;;7.55;5.00;;;5.30;81.40;;;;;;5070064;28;20364;-80
2022/01/10 01:52:13;;;;;;;9.45;5.50;;;5.20;81.30;;;;;;5067900;28;20100;-80
2022/01/10 01:54:38;;;;;;;13.43;5.63;;;5.30;81.30;;;;;;5066256;28;20017;-79
2022/01/10 01:57:04;;;;;;;9.75;6.10;;;5.20;81.30;;;;;;5066310;28;20035;-80
2022/01/10 01:59:30;;;;;;;7.55;4.68;;;5.20;81.40;;;;;;5069365;28;20009;-79
2022/01/10 02:01:56;;;;;;;8.50;5.53;;;5.20;81.50;;;;;;5070790;28;20136;-80
2022/01/10 02:04:21;;;;;;;8.15;5.18;;;5.30;81.60;;;;;;5068369;28;20044;-80
2022/01/10 02:06:47;;;;;;;6.85;5.30;;;5.30;81.50;;;;;;5062781;28;20386;-78
2022/01/10 02:09:15;;;;;;;9.80;5.95;;;5.30;81.60;;;;;;5064441;28;20028;-80
2022/01/10 02:11:41;;;;;;;7.32;5.22;;;5.30;81.50;;;;;;5069854;28;20052;-79
2022/01/10 02:14:08;;;;;;;8.10;4.75;;;5.30;81.40;;;;;;5063272;28;20063;-80
2022/01/10 02:16:45;;;;;;;9.70;5.50;;;5.30;81.30;;;;;;5066822;28;20024;-79
2022/01/10 02:19:11;;;;;;;11.68;6.55;;;5.30;81.40;;;;;;5069302;28;20478;-80
2022/01/10 02:21:38;;;;;;;7.90;5.65;;;5.30;81.30;;;;;;5072859;28;20052;-79
2022/01/10 02:24:05;;;;;;;9.32;6.13;;;5.30;81.20;;;;;;5057666;28;20064;-79
2022/01/10 02:26:31;;;;;;;10.50;6.35;;;5.30;81.90;;;;;;5065977;28;20027;-79
2022/01/10 02:28:58;;;;;;;11.38;6.72;;;5.30;81.30;;;;;;5068130;28;20034;-79
2022/01/10 02:31:24;;;;;;;11.98;6.90;;;5.30;81.10;;;;;;5070680;28;20024;-78
2022/01/10 02:33:56;;;;;;;11.60;6.35;;;5.30;81.10;;;;;;5065582;28;20041;-78
2022/01/10 02:36:26;;;;;;;10.55;6.30;;;5.30;81.10;;;;;;5068875;28;20052;-78
2022/01/10 02:39:11;;;;;;;10.20;6.60;;;5.30;81.30;;;;;;5069330;28;20074;-79
2022/01/10 02:41:40;;;;;;;10.23;6.57;;;5.30;81.10;;;;;;5066288;28;20647;-79
2022/01/10 02:44:14;;;;;;;13.27;7.50;;;5.30;81.00;;;;;;5066282;28;20426;-78
2022/01/10 02:46:40;;;;;;;10.77;6.05;;;5.30;80.90;;;;;;5065806;28;20017;-78
2022/01/10 02:49:11;;;;;;;11.90;7.22;;;5.30;81.20;;;;;;5064879;28;20024;-79
2022/01/10 02:51:37;;;;;;;9.43;6.68;;;5.30;81.10;;;;;;5067699;28;20029;-78
2022/01/10 02:54:03;;;;;;;9.60;6.50;;;5.30;81.00;;;;;;5062747;28;20023;-78
2022/01/10 02:56:28;;;;;;;11.18;7.60;;;5.30;81.00;;;;;;5065241;28;20390;-80
2022/01/10 02:58:54;;;;;;;12.05;7.60;;;5.30;81.00;;;;;;5064831;28;20025;-80
2022/01/10 03:01:19;;;;;;;10.63;7.47;;;5.30;81.10;;;;;;5065937;28;20052;-80
2022/01/10 03:03:45;;;;;;;10.90;6.97;;;5.30;81.20;;;;;;5060682;28;20390;-80
2022/01/10 03:06:11;;;;;;;9.40;6.55;;;5.40;81.10;;;;;;5067739;28;20481;-79
2022/01/10 03:08:36;;;;;;;10.07;6.38;;;5.30;81.00;;;;;;5061771;28;20538;-80
2022/01/10 03:11:02;;;;;;;9.65;6.90;;;5.30;81.00;;;;;;5062605;28;20033;-79
2022/01/10 03:13:27;;;;;;;11.65;7.72;;;5.30;81.10;;;;;;5049724;28;20522;-80
2022/01/10 03:15:53;;;;;;;9.50;6.10;;;5.30;81.20;;;;;;5062044;28;20025;-79
2022/01/10 03:18:19;;;;;;;12.15;7.00;;;5.20;81.10;;;;;;5066756;28;20021;-80
2022/01/10 03:20:44;;;;;;;7.75;5.50;;;5.30;81.40;;;;;;5075405;28;20032;-80
2022/01/10 03:23:10;;;;;;;10.95;7.55;;;5.20;81.40;;;;;;5060438;28;21026;-80
2022/01/10 03:25:36;;;;;;;11.32;7.28;;;5.30;81.40;;;;;;5066161;28;20024;-81
2022/01/10 03:28:01;;;;;;;9.10;6.45;;;5.30;81.20;;;;;;5058303;28;20486;-80
2022/01/10 03:30:28;;;;;;;8.40;6.05;;;5.20;81.20;;;;;;5058662;28;20028;-78
2022/01/10 03:32:56;;;;;;;11.23;7.15;;;5.20;81.40;;;;;;5059593;28;20048;-80
2022/01/10 03:35:22;;;;;;;10.05;6.68;;;5.20;81.50;;;;;;5068289;28;20391;-79
2022/01/10 03:37:47;;;;;;;10.82;7.88;;;5.20;81.60;;;;;;5062234;28;20032;-81
2022/01/10 03:40:13;;;;;;;12.85;8.10;;;5.20;81.50;;;;;;5067381;28;20471;-80
2022/01/10 03:42:39;;;;;;;13.05;8.52;;;5.20;81.50;;;;;;5059969;28;20721;-80
2022/01/10 03:45:06;;;;;;;12.10;7.70;;;5.20;81.50;;;;;;5054615;28;20060;-78
2022/01/10 03:47:32;;;;;;;15.32;7.70;;;5.20;81.40;;;;;;5061359;28;20025;-78
2022/01/10 03:49:58;;;;;;;14.38;8.35;;;5.20;81.30;;;;;;5067014;28;20590;-79
2022/01/10 03:52:25;;;;;;;13.40;7.85;;;5.20;81.30;;;;;;5068587;28;20108;-79
2022/01/10 03:54:50;;;;;;;11.68;8.02;;;5.20;81.40;;;;;;5068414;28;20021;-79
2022/01/10 03:57:16;;;;;;;9.95;7.40;;;5.20;81.40;;;;;;5067542;28;20032;-79
2022/01/10 03:59:42;;;;;;;12.75;8.32;;;5.30;81.40;;;;;;5069008;28;20017;-79
2022/01/10 04:02:08;;;;;;;11.43;7.72;;;5.30;81.30;;;;;;5067023;28;20146;-80
2022/01/10 04:04:35;;;;;;;10.98;7.50;;;5.20;81.20;;;;;;5066966;28;20659;-80
2022/01/10 04:07:01;;;;;;;14.88;8.40;;;5.20;81.40;;;;;;5063717;28;20029;-80
2022/01/10 04:09:27;;;;;;;12.35;8.55;;;5.30;81.50;;;;;;5064000;28;20062;-79
2022/01/10 04:11:52;;;;;;;11.60;8.00;;;5.30;81.40;;;;;;5068904;28;20021;-79
2022/01/10 04:14:18;;;;;;;14.23;8.27;;;5.30;81.30;;;;;;5069151;28;20073;-79
2022/01/10 04:16:43;;;;;;;13.77;8.30;;;5.30;81.20;;;;;;5061335;28;20116;-78
2022/01/10 04:19:09;;;;;;;12.27;9.05;;;5.40;81.20;;;;;;5069275;28;20021;-78
2022/01/10 04:21:34;;;;;;;11.80;7.57;;;5.30;81.10;;;;;;5064023;28;20506;-78
2022/01/10 04:24:00;;;;;;;11.48;7.43;;;5.40;81.10;;;;;;5072410;28;20052;-78
2022/01/10 04:26:25;;;;;;;12.38;8.00;;;5.30;80.90;;;;;;5066651;28;20025;-78
2022/01/10 04:28:51;;;;;;;14.20;7.95;;;5.30;81.10;;;;;;5064168;28;20032;-79
2022/01/10 04:31:17;;;;;;;12.35;8.25;;;5.30;81.20;;;;;;5058639;28;20024;-78
2022/01/10 04:33:42;;;;;;;11.88;8.05;;;5.30;81.20;;;;;;5067075;28;20028;-78
2022/01/10 04:36:08;;;;;;;12.43;8.13;;;5.40;81.20;;;;;;5058618;28;20104;-79
2022/01/10 04:38:37;;;;;;;13.73;8.88;;;5.40;81.10;;;;;;5068663;28;20410;-79
2022/01/10 04:41:04;;;;;;;14.43;8.25;;;5.40;81.70;;;;;;5068653;28;20023;-79
2022/01/10 04:43:30;;;;;;;12.15;8.18;;;5.40;81.00;;;;;;5066658;28;20029;-79
2022/01/10 04:45:55;;;;;;;13.40;8.35;;;5.30;81.10;;;;;;5076122;28;20498;-79
2022/01/10 04:48:21;;;;;;;13.85;8.40;;;5.40;81.20;;;;;;5061307;28;20028;-79
2022/01/10 04:51:32;;;;;;;13.30;7.82;;;5.40;81.10;;;;;;5066441;28;20029;-79
2022/01/10 04:53:36;;;;;;;10.32;7.78;;;5.40;81.00;;;;;;5066517;28;20060;-80
2022/01/10 04:56:02;;;;;;;11.27;8.15;;;5.50;81.10;;;;;;5068878;28;20036;-80
2022/01/10 04:58:28;;;;;;;10.23;7.50;;;5.40;80.90;;;;;;5065627;28;20386;-80
2022/01/10 05:00:55;;;;;;;14.48;8.93;;;5.40;80.80;;;;;;5066773;28;20012;-79
2022/01/10 05:03:21;;;;;;;10.68;7.18;;;5.40;80.80;;;;;;5066296;28;20040;-79
2022/01/10 05:05:52;;;;;;;10.18;7.88;;;5.40;80.90;;;;;;5062918;28;20505;-79
2022/01/10 05:08:17;;;;;;;10.55;7.32;;;5.40;81.00;;;;;;5061520;28;20024;-77
2022/01/10 05:10:44;;;;;;;10.35;6.88;;;5.40;81.00;;;;;;5062500;28;20045;-77
2022/01/10 05:13:09;;;;;;;15.27;7.97;;;5.40;80.90;;;;;;5065193;28;20026;-77
2022/01/10 05:15:35;;;;;;;7.35;5.70;;;5.40;80.90;;;;;;5066138;28;20035;-76
2022/01/10 05:18:01;;;;;;;10.90;6.75;;;5.40;80.90;;;;;;5054646;28;20352;-76
2022/01/10 05:20:26;;;;;;;14.15;8.35;;;5.40;81.00;;;;;;5072356;28;20028;-79
2022/01/10 05:22:52;;;;;;;12.43;8.55;;;5.40;81.70;;;;;;5073889;28;20128;-79
2022/01/10 05:25:17;;;;;;;12.25;8.30;;;5.40;81.00;;;;;;5063627;28;20032;-81
2022/01/10 05:27:43;;;;;;;13.38;9.02;;;5.50;81.00;;;;;;5059264;28;20033;-80
2022/01/10 05:30:09;;;;;;;13.82;7.85;;;5.50;80.90;;;;;;5055805;28;20033;-79
2022/01/10 05:32:35;;;;;;;11.55;7.45;;;5.40;80.80;;;;;;5066240;28;20107;-80
2022/01/10 05:35:00;;;;;;;10.02;6.80;;;5.40;80.90;;;;;;5071945;28;20559;-80
2022/01/10 05:37:26;;;;;;;11.88;8.10;;;5.40;80.90;;;;;;5069098;28;20032;-79
2022/01/10 05:39:51;;;;;;;13.02;8.85;;;5.40;81.00;;;;;;5061431;28;20059;-78
2022/01/10 05:42:19;;;;;;;12.85;8.45;;;5.40;81.00;;;;;;5062933;28;20016;-79
2022/01/10 05:44:45;;;;;;;10.95;8.02;;;5.50;80.90;;;;;;5065569;28;20045;-79
2022/01/10 05:47:10;;;;;;;11.48;7.55;;;5.40;80.80;;;;;;5066976;28;20101;-80
2022/01/10 05:49:37;;;;;;;13.75;8.48;;;5.40;80.80;;;;;;5071112;28;20024;-80
2022/01/10 05:52:04;;;;;;;12.93;7.70;;;5.40;80.60;;;;;;5070310;28;20024;-80
2022/01/10 05:54:29;;;;;;;13.25;8.63;;;5.50;80.60;;;;;;5067728;28;20116;-80
2022/01/10 05:56:55;;;;;;;13.73;8.73;;;5.40;80.50;;;;;;5066460;28;20125;-81
2022/01/10 05:59:21;;;;;;;13.45;9.30;;;5.40;80.40;;;;;;5065326;28;20128;-80
2022/01/10 06:01:46;;;;;;;11.88;8.52;;;5.40;80.40;;;;;;5067419;28;20027;-80
2022/01/10 06:04:12;;;;;;;18.75;11.27;;;5.40;80.50;;;;;;5070155;28;20032;-79
2022/01/10 06:06:37;;;;;;;13.98;8.80;;;5.40;80.60;;;;;;5069507;28;20014;-81
2022/01/10 06:09:03;;;;;;;14.02;8.85;;;5.40;80.50;;;;;;5070799;28;20039;-80
2022/01/10 06:11:29;;;;;;;13.63;9.13;;;5.40;80.50;;;;;;5056000;28;20020;-80
2022/01/10 06:13:54;;;;;;;13.38;7.82;;;5.40;80.60;;;;;;5061036;28;20025;-80
2022/01/10 06:16:20;;;;;;;13.38;8.07;;;5.40;80.60;;;;;;5066125;28;20139;-80
2022/01/10 06:18:45;;;;;;;12.13;8.30;;;5.40;80.70;;;;;;5070184;28;20113;-79
2022/01/10 06:21:11;;;;;;;9.65;7.00;;;5.40;80.60;;;;;;5079210;28;20024;-79
2022/01/10 06:23:36;;;;;;;13.73;8.63;;;5.40;80.80;;;;;;5066219;28;20043;-79
2022/01/10 06:26:02;;;;;;;14.18;8.43;;;5.40;81.40;;;;;;5067573;28;20056;-80
2022/01/10 06:28:28;;;;;;;12.77;8.85;;;5.50;80.90;;;;;;5067673;28;20024;-80
2022/01/10 06:30:53;;;;;;;13.35;8.93;;;5.50;80.80;;;;;;5070568;28;20024;-79
2022/01/10 06:33:19;;;;;;;14.18;9.05;;;5.50;80.70;;;;;;5071092;28;20024;-79
2022/01/10 06:35:44;;;;;;;14.20;9.02;;;5.50;80.60;;;;;;5067970;28;20023;-79
2022/01/10 06:38:10;;;;;;;12.38;8.70;;;5.50;80.50;;;;;;5066519;28;20035;-80
2022/01/10 06:40:35;;;;;;;13.95;7.95;;;5.40;80.50;;;;;;5062532;28;20024;-79
2022/01/10 06:43:01;;;;;;;12.43;7.35;;;5.40;80.60;;;;;;5062177;28;20035;-81
2022/01/10 06:45:27;;;;;;;12.38;8.45;;;5.40;80.50;;;;;;5062510;28;20031;-79
2022/01/10 06:47:52;;;;;;;15.48;8.88;;;5.30;80.70;;;;;;5064486;28;20056;-79
2022/01/10 06:50:18;;;;;;;13.95;9.13;;;5.20;80.70;;;;;;5066618;28;20378;-79
2022/01/10 06:52:43;;;;;;;12.63;8.63;;;5.10;80.70;;;;;;5068668;28;20037;-80
2022/01/10 06:55:09;;;;;;;13.15;8.10;;;5.10;81.00;;;;;;5059178;28;20021;-80
2022/01/10 06:57:35;;;;;;;18.00;9.23;;;5.00;81.00;;;;;;5067887;28;20036;-81
2022/01/10 07:00:02;;;;;;;13.95;9.23;;;5.00;81.30;;;;;;5057197;28;20027;-81
2022/01/10 07:02:28;;;;;;;13.80;9.18;;;4.90;81.30;;;;;;5060699;28;20023;-82
2022/01/10 07:04:55;;;;;;;13.15;9.05;;;4.90;81.40;;;;;;5063634;28;20394;-81
2022/01/10 07:07:20;;;;;;;14.57;9.43;;;4.90;81.50;;;;;;5060444;28;20025;-81
2022/01/10 07:09:46;;;;;;;17.90;10.90;;;4.80;81.50;;;;;;5065305;28;20078;-82
2022/01/10 07:12:12;;;;;;;15.02;9.40;;;4.80;81.60;;;;;;5066621;28;20353;-81
2022/01/10 07:14:38;;;;;;;16.08;9.40;;;4.70;81.80;;;;;;5066314;28;20112;-79
2022/01/10 07:17:04;;;;;;;14.32;9.77;;;4.80;81.90;;;;;;5069294;28;20167;-81
2022/01/10 07:19:29;;;;;;;14.95;9.20;;;4.80;81.80;;;;;;5072415;28;20020;-88
2022/01/10 07:21:55;;;;;;;14.68;9.57;;;4.80;81.70;;;;;;5068500;28;20032;-92
2022/01/10 07:24:20;;;;;;;13.20;9.27;;;4.90;81.60;;;;;;5068127;28;20480;-93
2022/01/10 07:26:46;;;;;;;14.23;9.73;;;4.90;81.60;;;;;;5054007;28;20047;-91
2022/01/10 07:29:12;;;;;;;13.85;8.93;;;4.90;81.50;;;;;;5063972;28;20089;-87
2022/01/10 07:31:39;;;;;;;13.50;8.85;;;4.90;81.40;;;;;;5062321;28;20430;-89
2022/01/10 07:34:06;;;;;;;14.20;9.05;;;4.90;81.40;;;;;;5067417;28;20117;-84
2022/01/10 07:36:31;;;;;;;12.95;9.23;;;4.80;81.30;;;;;;5056148;28;20474;-87
2022/01/10 07:38:57;;;;;;;11.60;8.50;;;4.80;81.50;;;;;;5067638;28;20029;-84
2022/01/10 07:41:23;;;;;;;15.18;9.35;;;4.80;81.70;;;;;;5059425;28;20059;-83
2022/01/10 07:43:50;;;;;;;14.63;9.65;;;4.70;81.60;;;;;;5066654;28;20059;-82
2022/01/10 07:46:15;;;;;;;9.60;7.10;;;4.80;81.70;;;;;;5072743;28;20028;-83
2022/01/10 07:48:42;;;;;;;14.23;9.35;;;4.80;81.70;;;;;;5076851;28;20032;-82
2022/01/10 07:51:09;;;;;;;18.13;11.85;;;4.70;81.70;;;;;;5073709;28;20122;-86
2022/01/10 07:53:36;;;;;;;17.73;10.57;;;4.70;81.80;;;;;;5062987;28;20025;-87
2022/01/10 07:56:03;;;;;;;13.35;8.93;;;4.70;81.80;;;;;;5063704;28;20024;-88
2022/01/10 07:58:28;;;;;;;15.10;9.77;;;4.70;81.80;;;;;;5068039;28;20103;-92
2022/01/10 08:00:55;;;;;;;17.25;10.05;;;4.70;82.00;;;;;;5090709;28;20048;-93
2022/01/10 08:03:20;;;;;;;14.45;9.30;;;4.70;82.10;;;;;;5062531;28;20025;-89
2022/01/10 08:05:46;;;;;;;17.10;9.63;;;4.70;82.00;;;;;;5061301;28;20031;-84
2022/01/10 08:08:11;;;;;;;14.82;9.43;;;4.70;82.10;;;;;;5068167;28;20025;-90
2022/01/10 08:10:37;;;;;;;15.60;9.43;;;4.70;82.00;;;;;;5070861;28;20062;-85
2022/01/10 08:13:03;;;;;;;15.35;10.20;;;4.70;82.00;;;;;;5066787;28;20021;-89
2022/01/10 08:15:30;;;;;;;14.45;9.80;;;4.70;82.00;;;;;;5061240;28;20063;-85
2022/01/10 08:17:56;;;;;;;16.77;11.02;;;4.80;82.10;;;;;;5071411;28;20024;-89
2022/01/10 08:20:22;;;;;;;16.85;11.15;;;4.70;81.90;;;;;;5070480;28;20119;-86
2022/01/10 08:22:47;;;;;;;14.55;10.25;;;4.70;82.00;;;;;;5070775;28;20114;-85
2022/01/10 08:25:13;;;;;;;16.75;9.80;;;4.70;82.10;;;;;;5067838;28;20394;-85
2022/01/10 08:27:39;;;;;;;15.65;11.00;;;4.80;82.10;;;;;;5067481;28;20032;-87
2022/01/10 08:30:05;;;;;;;17.60;10.65;;;4.70;82.10;;;;;;5065703;28;20071;-82
2022/01/10 08:32:31;;;;;;;14.65;9.77;;;4.80;82.40;;;;;;5072450;28;20021;-87
2022/01/10 08:34:57;;;;;;;13.77;9.55;;;4.80;82.10;;;;;;5055556;28;20468;-86
2022/01/10 08:37:23;;;;;;;16.67;9.75;;;4.70;82.00;;;;;;5060822;28;20658;-90
2022/01/10 08:39:51;;;;;;;14.68;10.43;;;4.80;82.00;;;;;;5054425;28;20325;-90
2022/01/10 08:42:18;;;;;;;12.23;8.60;;;4.80;82.00;;;;;;5069794;28;20026;-84
2022/01/10 08:44:45;;;;;;;18.13;11.60;;;4.80;82.00;;;;;;5068824;28;20039;-88
2022/01/10 08:47:11;;;;;;;17.65;10.93;;;4.70;81.90;;;;;;5069315;28;20119;-84
2022/01/10 08:49:37;;;;;;;18.30;11.50;;;4.70;82.10;;;;;;5064939;28;20151;-86
2022/01/10 08:52:03;;;;;;;13.40;9.57;;;4.70;82.30;;;;;;5064347;28;20032;-84
2022/01/10 08:54:29;;;;;;;15.55;9.57;;;4.70;82.50;;;;;;5059346;28;20564;-84
2022/01/10 08:56:54;;;;;;;19.67;12.38;;;4.70;82.60;;;;;;5054403;28;20565;-86
2022/01/10 08:59:22;;;;;;;17.50;10.93;;;4.80;82.60;;;;;;5054996;28;20025;-82
2022/01/10 09:01:48;;;;;;;16.77;10.30;;;4.80;82.70;;;;;;5063478;28;20025;-85
2022/01/10 09:04:18;;;;;;;15.68;10.65;;;4.80;82.60;;;;;;5072003;28;20777;-84
2022/01/10 09:06:45;;;;;;;14.85;9.68;;;4.80;82.50;;;;;;5071429;28;20036;-87
2022/01/10 09:09:11;;;;;;;14.98;9.93;;;4.90;82.50;;;;;;5083155;28;20127;-82
2022/01/10 09:11:37;;;;;;;15.13;10.05;;;4.90;82.40;;;;;;5077598;28;20020;-84
2022/01/10 09:14:03;;;;;;;16.15;11.40;;;4.90;82.40;;;;;;5070310;28;20028;-85
2022/01/10 09:16:29;;;;;;;15.52;9.98;;;4.90;82.40;;;;;;5073216;28;20024;-82
2022/01/10 09:18:54;;;;;;;17.77;11.57;;;4.90;82.40;;;;;;5074606;28;20033;-82
2022/01/10 09:21:20;;;;;;;16.13;10.25;;;5.00;82.40;;;;;;5080189;28;20125;-82
2022/01/10 09:23:45;;;;;;;15.10;11.57;;;5.00;82.40;;;;;;5068858;28;20025;-85
2022/01/10 09:26:11;;;;;;;15.07;10.30;;;5.00;82.50;;;;;;5066208;28;20522;-84
2022/01/10 09:28:37;;;;;;;12.52;8.68;;;5.00;82.50;;;;;;5069267;28;20028;-84
2022/01/10 09:31:02;;;;;;;16.02;10.65;;;5.00;82.50;;;;;;5068889;28;20023;-82
2022/01/10 09:33:28;;;;;;;15.40;9.60;;;5.00;82.50;;;;;;5062745;28;20020;-81
2022/01/10 09:35:54;;;;;;;18.58;13.05;;;5.00;82.60;;;;;;5065617;28;20153;-81
2022/01/10 09:38:19;;;;;;;16.73;10.32;;;5.10;82.60;;;;;;5061173;28;20471;-81
2022/01/10 09:40:45;;;;;;;18.65;11.65;;;5.00;82.60;;;;;;5074665;28;20122;-82
2022/01/10 09:43:10;;;;;;;19.40;11.80;;;5.00;82.60;;;;;;5063824;28;20029;-81
2022/01/10 09:45:36;;;;;;;14.68;9.52;;;5.10;82.80;;;;;;5060309;28;20052;-82
2022/01/10 09:48:02;;;;;;;18.15;11.63;;;5.10;82.70;;;;;;5060600;28;20033;-81
2022/01/10 09:50:28;;;;;;;18.00;11.98;;;5.10;82.70;;;;;;5058749;28;20032;-80
2022/01/10 09:52:54;;;;;;;11.82;7.70;;;5.10;82.70;;;;;;5066463;28;20029;-81
2022/01/10 09:55:19;;;;;;;14.02;10.18;;;5.10;82.70;;;;;;5056411;28;20221;-79
2022/01/10 09:57:45;;;;;;;18.42;11.13;;;5.10;82.80;;;;;;5065221;28;20055;-81
2022/01/10 10:00:11;;;;;;;11.70;8.93;;;5.10;82.80;;;;;;5065967;28;20084;-80
2022/01/10 10:02:40;;;;;;;20.52;12.50;;;5.20;82.80;;;;;;5065244;28;20111;-82
2022/01/10 10:05:08;;;;;;;19.80;11.50;;;5.20;82.80;;;;;;5064257;28;20036;-81
2022/01/10 10:07:38;;;;;;;18.88;11.57;;;5.20;82.90;;;;;;5074784;28;20024;-83
2022/01/10 10:10:07;;;;;;;21.33;13.60;;;5.20;82.90;;;;;;5069161;28;20023;-82
2022/01/10 10:12:33;;;;;;;15.40;9.85;;;5.20;82.90;;;;;;5073081;28;20043;-82
2022/01/10 10:15:07;;;;;;;17.65;11.60;;;5.20;82.90;;;;;;5074791;28;20036;-81
2022/01/10 10:17:34;;;;;;;12.20;8.20;;;5.20;82.90;;;;;;5067558;28;20054;-83
2022/01/10 10:20:07;;;;;;;14.82;10.02;;;5.30;83.00;;;;;;5068318;28;20024;-83
2022/01/10 10:22:32;;;;;;;21.10;12.13;;;5.30;82.90;;;;;;5067035;28;20029;-86
2022/01/10 10:24:58;;;;;;;17.88;12.20;;;5.20;82.80;;;;;;5072667;28;20070;-84
2022/01/10 10:27:24;;;;;;;16.83;11.30;;;5.20;82.90;;;;;;5071028;28;20379;-83
2022/01/10 10:29:51;;;;;;;16.23;12.15;;;5.30;83.00;;;;;;5072232;28;20036;-82
2022/01/10 10:32:16;;;;;;;17.30;10.55;;;5.30;83.00;;;;;;5077244;28;20078;-84
2022/01/10 10:34:43;;;;;;;18.25;11.50;;;5.30;83.10;;;;;;5071935;28;20028;-78
2022/01/10 10:37:13;;;;;;;14.65;10.48;;;5.40;83.10;;;;;;5067217;28;20021;-81
2022/01/10 10:39:42;;;;;;;23.02;12.48;;;5.40;83.00;;;;;;5067526;28;20364;-83
2022/01/10 10:42:10;;;;;;;20.77;12.63;;;5.50;82.90;;;;;;5065019;28;20036;-79
2022/01/10 10:44:37;;;;;;;20.08;11.55;;;5.50;82.90;;;;;;5064732;28;20060;-81
2022/01/10 10:47:03;;;;;;;21.98;12.68;;;5.40;82.80;;;;;;5062237;28;20028;-80
2022/01/10 10:49:35;;;;;;;18.02;10.32;;;5.50;82.80;;;;;;5061409;28;20021;-82
2022/01/10 10:52:05;;;;;;;16.38;10.85;;;5.50;82.80;;;;;;5062898;28;20453;-82
2022/01/10 10:54:32;;;;;;;16.50;10.23;;;5.40;82.80;;;;;;5063500;28;20024;-82
2022/01/10 10:56:59;;;;;;;18.42;11.85;;;5.50;82.90;;;;;;5061548;28;20021;-81
2022/01/10 10:59:29;;;;;;;20.85;13.98;;;5.50;82.90;;;;;;5063892;28;20073;-83
2022/01/10 11:01:56;;;;;;;20.90;13.45;;;5.40;82.90;;;;;;5061165;28;20120;-83
2022/01/10 11:04:21;;;;;;;20.25;14.32;;;5.40;82.90;;;;;;5069162;28;20029;-83
2022/01/10 11:06:47;;;;;;;19.15;12.38;;;5.40;82.90;;;;;;5058976;28;20032;-81
2022/01/10 11:09:14;;;;;;;23.63;13.80;;;5.40;82.90;;;;;;5064052;28;20486;-80
2022/01/10 11:11:42;;;;;;;18.50;11.30;;;5.40;83.00;;;;;;5056232;28;20368;-79
2022/01/10 11:14:10;;;;;;;21.92;13.45;;;5.40;83.10;;;;;;5067492;28;20016;-79
2022/01/10 11:16:39;;;;;;;22.35;13.85;;;5.50;83.20;;;;;;5067767;28;20032;-80
2022/01/10 11:19:31;;;;;;;20.58;15.25;;;5.50;83.20;;;;;;5063585;28;20028;-79
2022/01/10 11:22:08;;;;;;;24.08;15.35;;;5.60;83.40;;;;;;5068053;28;20495;-80
2022/01/10 11:24:50;;;;;;;23.65;17.40;;;5.60;83.50;;;;;;5062980;28;20036;-79
2022/01/10 11:27:42;;;;;;;17.17;11.93;;;5.60;83.60;;;;;;5067452;28;20028;-79
2022/01/10 11:30:38;;;;;;;24.65;15.32;;;5.70;83.40;;;;;;5059869;28;20448;-79
2022/01/10 11:33:08;;;;;;;15.55;11.40;;;5.70;83.40;;;;;;5063244;28;20482;-79
2022/01/10 11:35:39;;;;;;;22.35;13.48;;;5.80;83.40;;;;;;5062148;28;20422;-80
2022/01/10 11:38:15;;;;;;;17.40;11.23;;;5.90;83.40;;;;;;5059699;28;20016;-80
2022/01/10 11:40:42;;;;;;;19.00;13.82;;;6.00;83.30;;;;;;5065285;28;20032;-80
2022/01/10 11:43:08;;;;;;;26.27;15.13;;;6.00;83.10;;;;;;5060720;28;20537;-81
2022/01/10 11:45:42;;;;;;;26.80;15.32;;;6.00;83.10;;;;;;5064327;28;20029;-80
2022/01/10 11:48:10;;;;;;;22.95;14.38;;;6.10;83.30;;;;;;5063484;28;20464;-79
2022/01/10 11:50:41;;;;;;;27.40;17.95;;;6.10;83.20;;;;;;5064041;28;20102;-81
2022/01/10 11:53:08;;;;;;;17.20;12.77;;;6.10;83.30;;;;;;5063052;28;20025;-81
2022/01/10 11:55:50;;;;;;;23.52;15.90;;;6.20;83.30;;;;;;5060266;28;20483;-80
2022/01/10 11:58:25;;;;;;;26.40;15.90;;;6.20;83.20;;;;;;5063961;28;20498;-87
2022/01/10 12:01:05;;;;;;;18.80;12.63;;;6.20;83.20;;;;;;5065935;28;20037;-84
2022/01/10 12:03:32;;;;;;;20.95;13.70;;;6.30;83.30;;;;;;5062662;28;20431;-79
2022/01/10 12:05:57;;;;;;;17.67;11.82;;;6.40;83.30;;;;;;5056582;28;20570;-84
2022/01/10 12:08:23;;;;;;;19.85;12.63;;;6.50;83.20;;;;;;5066967;28;20107;-83
2022/01/10 12:10:49;;;;;;;16.70;10.88;;;6.50;83.00;;;;;;5068426;28;20045;-84
2022/01/10 12:13:15;;;;;;;21.48;13.35;;;6.50;83.00;;;;;;5067912;28;20503;-86
2022/01/10 12:15:40;;;;;;;22.33;14.27;;;6.60;83.00;;;;;;5065680;28;20036;-82
2022/01/10 12:18:07;;;;;;;21.25;13.63;;;6.70;83.10;;;;;;5074125;28;20025;-82
2022/01/10 12:20:33;;;;;;;16.20;10.57;;;6.70;82.80;;;;;;5071450;28;20046;-80
2022/01/10 12:23:00;;;;;;;17.25;11.35;;;6.80;82.90;;;;;;5062420;28;20495;-82
2022/01/10 12:25:27;;;;;;;12.60;8.30;;;6.90;82.80;;;;;;5074617;28;20505;-82
2022/01/10 12:27:54;;;;;;;17.90;12.02;;;6.90;82.60;;;;;;5072403;28;20042;-83
2022/01/10 12:30:21;;;;;;;19.75;11.20;;;7.00;82.50;;;;;;5069645;28;20032;-82
2022/01/10 12:32:48;;;;;;;17.27;11.02;;;7.00;82.50;;;;;;5073034;28;20021;-80
2022/01/10 12:35:15;;;;;;;16.88;12.13;;;7.10;82.40;;;;;;5067188;28;20109;-78
2022/01/10 12:37:41;;;;;;;21.88;13.18;;;7.10;82.40;;;;;;5070891;28;20051;-83
2022/01/10 12:40:10;;;;;;;16.73;10.98;;;7.20;82.30;;;;;;5076724;28;20392;-84
2022/01/10 12:42:35;;;;;;;16.95;12.35;;;7.20;82.10;;;;;;5075504;28;20029;-85
2022/01/10 12:45:01;;;;;;;18.40;12.15;;;7.20;82.00;;;;;;5077015;28;20215;-81
2022/01/10 12:47:27;;;;;;;23.10;12.45;;;7.30;82.00;;;;;;5062469;28;20017;-84
2022/01/10 12:49:56;;;;;;;22.35;13.65;;;7.30;81.90;;;;;;5069243;28;20028;-84
2022/01/10 12:52:22;;;;;;;18.42;11.93;;;7.20;81.80;;;;;;5061921;28;20039;-86
2022/01/10 12:54:48;;;;;;;16.67;10.07;;;7.20;81.80;;;;;;5068627;28;20108;-86